sensor_id;sensor_type;location;lat;lon;timestamp;P1;durP1;ratioP1;P2;durP2;ratioP2
51036;SDS011;37064;59.346;18.058;2023-04-24T00:00:55;5.00;;;1.88;;
51036;SDS011;37064;59.346;18.058;2023-04-24T00:03:22;3.30;;;1.88;;
51036;SDS011;37064;59.346;18.058;2023-04-24T00:05:48;2.88;;;1.75;;
51036;SDS011;37064;59.346;18.058;2023-04-24T00:08:14;2.17;;;1.70;;
51036;SDS011;37064;59.346;18.058;2023-04-24T00:10:40;4.68;;;2.00;;
51036;SDS011;37064;59.346;18.058;2023-04-24T00:13:06;3.30;;;2.30;;
51036;SDS011;37064;59.346;18.058;2023-04-24T00:15:32;4.53;;;2.38;;
51036;SDS011;37064;59.346;18.058;2023-04-24T00:17:58;4.70;;;2.92;;
51036;SDS011;37064;59.346;18.058;2023-04-24T00:20:26;3.33;;;2.00;;
51036;SDS011;37064;59.346;18.058;2023-04-24T00:22:53;6.95;;;2.40;;
51036;SDS011;37064;59.346;18.058;2023-04-24T00:25:19;6.72;;;3.00;;
51036;SDS011;37064;59.346;18.058;2023-04-24T00:27:45;5.15;;;2.85;;
51036;SDS011;37064;59.346;18.058;2023-04-24T00:30:11;4.35;;;2.65;;
51036;SDS011;37064;59.346;18.058;2023-04-24T00:32:37;6.53;;;2.72;;
51036;SDS011;37064;59.346;18.058;2023-04-24T00:35:03;5.68;;;2.45;;
51036;SDS011;37064;59.346;18.058;2023-04-24T00:37:30;5.40;;;2.70;;
51036;SDS011;37064;59.346;18.058;2023-04-24T00:39:56;8.70;;;2.55;;
51036;SDS011;37064;59.346;18.058;2023-04-24T00:42:22;4.72;;;2.65;;
51036;SDS011;37064;59.346;18.058;2023-04-24T00:44:48;4.70;;;2.50;;
51036;SDS011;37064;59.346;18.058;2023-04-24T00:47:14;4.13;;;1.98;;
51036;SDS011;37064;59.346;18.058;2023-04-24T00:49:40;5.03;;;2.22;;
51036;SDS011;37064;59.346;18.058;2023-04-24T00:52:06;5.97;;;2.88;;
51036;SDS011;37064;59.346;18.058;2023-04-24T00:54:34;2.80;;;2.10;;
51036;SDS011;37064;59.346;18.058;2023-04-24T00:57:00;6.47;;;2.70;;
51036;SDS011;37064;59.346;18.058;2023-04-24T00:59:27;3.72;;;2.08;;
51036;SDS011;37064;59.346;18.058;2023-04-24T01:01:53;5.47;;;2.58;;
51036;SDS011;37064;59.346;18.058;2023-04-24T01:04:19;4.70;;;2.00;;
51036;SDS011;37064;59.346;18.058;2023-04-24T01:06:45;3.97;;;2.40;;
51036;SDS011;37064;59.346;18.058;2023-04-24T01:09:12;9.30;;;2.58;;
51036;SDS011;37064;59.346;18.058;2023-04-24T01:11:39;7.07;;;3.40;;
51036;SDS011;37064;59.346;18.058;2023-04-24T01:14:07;7.15;;;3.35;;
51036;SDS011;37064;59.346;18.058;2023-04-24T01:16:33;5.72;;;2.45;;
51036;SDS011;37064;59.346;18.058;2023-04-24T01:18:59;7.88;;;3.10;;
51036;SDS011;37064;59.346;18.058;2023-04-24T01:21:26;4.43;;;1.70;;
51036;SDS011;37064;59.346;18.058;2023-04-24T01:23:55;5.50;;;2.58;;
51036;SDS011;37064;59.346;18.058;2023-04-24T01:26:22;5.38;;;1.95;;
51036;SDS011;37064;59.346;18.058;2023-04-24T01:28:50;6.60;;;2.40;;
51036;SDS011;37064;59.346;18.058;2023-04-24T01:31:17;6.78;;;2.65;;
51036;SDS011;37064;59.346;18.058;2023-04-24T01:33:43;5.25;;;2.47;;
51036;SDS011;37064;59.346;18.058;2023-04-24T01:36:10;5.25;;;2.88;;
51036;SDS011;37064;59.346;18.058;2023-04-24T01:38:37;5.75;;;2.42;;
51036;SDS011;37064;59.346;18.058;2023-04-24T01:41:03;6.53;;;2.70;;
51036;SDS011;37064;59.346;18.058;2023-04-24T01:43:29;4.38;;;1.88;;
51036;SDS011;37064;59.346;18.058;2023-04-24T01:45:55;3.35;;;1.75;;
51036;SDS011;37064;59.346;18.058;2023-04-24T01:48:21;4.53;;;1.42;;
51036;SDS011;37064;59.346;18.058;2023-04-24T01:50:47;2.00;;;1.42;;
51036;SDS011;37064;59.346;18.058;2023-04-24T01:53:13;1.85;;;1.45;;
51036;SDS011;37064;59.346;18.058;2023-04-24T01:55:40;2.90;;;1.40;;
51036;SDS011;37064;59.346;18.058;2023-04-24T01:58:06;3.30;;;1.40;;
51036;SDS011;37064;59.346;18.058;2023-04-24T02:00:32;2.80;;;1.75;;
51036;SDS011;37064;59.346;18.058;2023-04-24T02:02:58;3.40;;;1.45;;
51036;SDS011;37064;59.346;18.058;2023-04-24T02:05:26;4.22;;;2.38;;
51036;SDS011;37064;59.346;18.058;2023-04-24T02:07:52;2.70;;;1.35;;
51036;SDS011;37064;59.346;18.058;2023-04-24T02:10:18;2.25;;;1.30;;
51036;SDS011;37064;59.346;18.058;2023-04-24T02:12:44;5.53;;;2.03;;
51036;SDS011;37064;59.346;18.058;2023-04-24T02:15:10;5.97;;;1.83;;
51036;SDS011;37064;59.346;18.058;2023-04-24T02:17:37;3.38;;;1.90;;
51036;SDS011;37064;59.346;18.058;2023-04-24T02:20:04;4.97;;;1.63;;
51036;SDS011;37064;59.346;18.058;2023-04-24T02:22:30;3.17;;;1.70;;
51036;SDS011;37064;59.346;18.058;2023-04-24T02:24:56;5.07;;;1.70;;
51036;SDS011;37064;59.346;18.058;2023-04-24T02:27:22;6.78;;;2.38;;
51036;SDS011;37064;59.346;18.058;2023-04-24T02:29:48;4.25;;;1.52;;
51036;SDS011;37064;59.346;18.058;2023-04-24T02:32:14;3.80;;;1.60;;
51036;SDS011;37064;59.346;18.058;2023-04-24T02:34:40;15.18;;;3.72;;
51036;SDS011;37064;59.346;18.058;2023-04-24T02:37:06;5.75;;;2.03;;
51036;SDS011;37064;59.346;18.058;2023-04-24T02:39:32;4.43;;;1.80;;
51036;SDS011;37064;59.346;18.058;2023-04-24T02:41:58;5.25;;;1.90;;
51036;SDS011;37064;59.346;18.058;2023-04-24T02:44:25;5.82;;;3.00;;
51036;SDS011;37064;59.346;18.058;2023-04-24T02:46:51;7.85;;;2.40;;
51036;SDS011;37064;59.346;18.058;2023-04-24T02:49:17;6.10;;;2.72;;
51036;SDS011;37064;59.346;18.058;2023-04-24T02:51:43;7.50;;;2.10;;
51036;SDS011;37064;59.346;18.058;2023-04-24T02:54:09;4.10;;;2.10;;
51036;SDS011;37064;59.346;18.058;2023-04-24T02:56:35;6.28;;;2.22;;
51036;SDS011;37064;59.346;18.058;2023-04-24T02:59:01;6.72;;;3.38;;
51036;SDS011;37064;59.346;18.058;2023-04-24T03:01:27;7.72;;;3.53;;
51036;SDS011;37064;59.346;18.058;2023-04-24T03:03:53;7.22;;;2.03;;
51036;SDS011;37064;59.346;18.058;2023-04-24T03:06:19;9.00;;;2.15;;
51036;SDS011;37064;59.346;18.058;2023-04-24T03:08:46;5.30;;;2.38;;
51036;SDS011;37064;59.346;18.058;2023-04-24T03:11:12;6.05;;;2.20;;
51036;SDS011;37064;59.346;18.058;2023-04-24T03:13:38;7.30;;;2.80;;
51036;SDS011;37064;59.346;18.058;2023-04-24T03:16:04;5.82;;;2.33;;
51036;SDS011;37064;59.346;18.058;2023-04-24T03:18:30;5.55;;;2.40;;
51036;SDS011;37064;59.346;18.058;2023-04-24T03:20:56;9.35;;;2.85;;
51036;SDS011;37064;59.346;18.058;2023-04-24T03:23:22;7.03;;;2.95;;
51036;SDS011;37064;59.346;18.058;2023-04-24T03:25:48;8.00;;;2.45;;
51036;SDS011;37064;59.346;18.058;2023-04-24T03:28:14;8.73;;;3.53;;
51036;SDS011;37064;59.346;18.058;2023-04-24T03:30:40;6.93;;;2.75;;
51036;SDS011;37064;59.346;18.058;2023-04-24T03:33:06;6.28;;;2.63;;
51036;SDS011;37064;59.346;18.058;2023-04-24T03:35:32;9.32;;;4.13;;
51036;SDS011;37064;59.346;18.058;2023-04-24T03:37:58;8.02;;;2.58;;
51036;SDS011;37064;59.346;18.058;2023-04-24T03:40:24;7.32;;;3.10;;
51036;SDS011;37064;59.346;18.058;2023-04-24T03:42:50;6.13;;;2.45;;
51036;SDS011;37064;59.346;18.058;2023-04-24T03:45:16;5.88;;;2.38;;
51036;SDS011;37064;59.346;18.058;2023-04-24T03:47:43;8.65;;;3.63;;
51036;SDS011;37064;59.346;18.058;2023-04-24T03:50:09;8.40;;;3.85;;
51036;SDS011;37064;59.346;18.058;2023-04-24T03:52:35;6.45;;;2.83;;
51036;SDS011;37064;59.346;18.058;2023-04-24T03:55:01;8.95;;;4.05;;
51036;SDS011;37064;59.346;18.058;2023-04-24T03:57:27;5.15;;;2.60;;
51036;SDS011;37064;59.346;18.058;2023-04-24T03:59:53;5.20;;;2.50;;
51036;SDS011;37064;59.346;18.058;2023-04-24T04:02:20;4.93;;;2.28;;
51036;SDS011;37064;59.346;18.058;2023-04-24T04:04:46;5.25;;;2.40;;
51036;SDS011;37064;59.346;18.058;2023-04-24T04:07:12;6.30;;;2.97;;
51036;SDS011;37064;59.346;18.058;2023-04-24T04:09:38;4.97;;;2.22;;
51036;SDS011;37064;59.346;18.058;2023-04-24T04:12:04;5.88;;;2.95;;
51036;SDS011;37064;59.346;18.058;2023-04-24T04:14:30;6.45;;;2.72;;
51036;SDS011;37064;59.346;18.058;2023-04-24T04:16:56;7.65;;;2.80;;
51036;SDS011;37064;59.346;18.058;2023-04-24T04:19:22;5.63;;;2.67;;
51036;SDS011;37064;59.346;18.058;2023-04-24T04:21:48;5.18;;;2.28;;
51036;SDS011;37064;59.346;18.058;2023-04-24T04:24:18;7.22;;;3.45;;
51036;SDS011;37064;59.346;18.058;2023-04-24T04:26:48;8.38;;;3.28;;
51036;SDS011;37064;59.346;18.058;2023-04-24T04:29:16;7.68;;;3.28;;
51036;SDS011;37064;59.346;18.058;2023-04-24T04:31:42;5.43;;;2.53;;
51036;SDS011;37064;59.346;18.058;2023-04-24T04:34:08;6.50;;;3.15;;
51036;SDS011;37064;59.346;18.058;2023-04-24T04:36:34;5.88;;;2.75;;
51036;SDS011;37064;59.346;18.058;2023-04-24T04:39:02;5.28;;;2.85;;
51036;SDS011;37064;59.346;18.058;2023-04-24T04:41:29;6.20;;;2.65;;
51036;SDS011;37064;59.346;18.058;2023-04-24T04:43:55;4.85;;;2.85;;
51036;SDS011;37064;59.346;18.058;2023-04-24T04:46:23;6.63;;;3.35;;
51036;SDS011;37064;59.346;18.058;2023-04-24T04:48:51;5.63;;;2.53;;
51036;SDS011;37064;59.346;18.058;2023-04-24T04:51:17;8.88;;;3.08;;
51036;SDS011;37064;59.346;18.058;2023-04-24T04:53:43;8.18;;;2.92;;
51036;SDS011;37064;59.346;18.058;2023-04-24T04:56:09;5.88;;;2.25;;
51036;SDS011;37064;59.346;18.058;2023-04-24T04:58:35;5.70;;;2.95;;
51036;SDS011;37064;59.346;18.058;2023-04-24T05:01:01;7.03;;;2.45;;
51036;SDS011;37064;59.346;18.058;2023-04-24T05:03:27;6.78;;;2.70;;
51036;SDS011;37064;59.346;18.058;2023-04-24T05:05:53;8.57;;;4.03;;
51036;SDS011;37064;59.346;18.058;2023-04-24T05:08:19;8.18;;;2.80;;
51036;SDS011;37064;59.346;18.058;2023-04-24T05:10:45;7.60;;;2.72;;
51036;SDS011;37064;59.346;18.058;2023-04-24T05:13:11;8.60;;;3.97;;
51036;SDS011;37064;59.346;18.058;2023-04-24T05:15:37;5.47;;;2.63;;
51036;SDS011;37064;59.346;18.058;2023-04-24T05:18:03;11.38;;;2.85;;
51036;SDS011;37064;59.346;18.058;2023-04-24T05:20:29;6.97;;;3.42;;
51036;SDS011;37064;59.346;18.058;2023-04-24T05:22:55;6.63;;;2.83;;
51036;SDS011;37064;59.346;18.058;2023-04-24T05:25:21;7.60;;;3.28;;
51036;SDS011;37064;59.346;18.058;2023-04-24T05:27:47;6.22;;;2.70;;
51036;SDS011;37064;59.346;18.058;2023-04-24T05:30:13;6.70;;;2.63;;
51036;SDS011;37064;59.346;18.058;2023-04-24T05:32:40;9.82;;;3.30;;
51036;SDS011;37064;59.346;18.058;2023-04-24T05:35:06;7.35;;;2.85;;
51036;SDS011;37064;59.346;18.058;2023-04-24T05:37:32;7.55;;;3.00;;
51036;SDS011;37064;59.346;18.058;2023-04-24T05:39:58;5.18;;;2.63;;
51036;SDS011;37064;59.346;18.058;2023-04-24T05:42:24;5.65;;;1.80;;
51036;SDS011;37064;59.346;18.058;2023-04-24T05:44:50;6.22;;;2.67;;
51036;SDS011;37064;59.346;18.058;2023-04-24T05:47:18;5.53;;;1.98;;
51036;SDS011;37064;59.346;18.058;2023-04-24T05:49:46;5.35;;;2.17;;
51036;SDS011;37064;59.346;18.058;2023-04-24T05:52:12;4.90;;;2.13;;
51036;SDS011;37064;59.346;18.058;2023-04-24T05:54:38;9.02;;;2.60;;
51036;SDS011;37064;59.346;18.058;2023-04-24T05:57:04;6.05;;;1.92;;
51036;SDS011;37064;59.346;18.058;2023-04-24T05:59:36;3.22;;;1.73;;
51036;SDS011;37064;59.346;18.058;2023-04-24T06:02:06;4.90;;;2.53;;
51036;SDS011;37064;59.346;18.058;2023-04-24T06:04:32;3.88;;;1.65;;
51036;SDS011;37064;59.346;18.058;2023-04-24T06:06:58;4.57;;;1.70;;
51036;SDS011;37064;59.346;18.058;2023-04-24T06:09:25;5.95;;;2.17;;
51036;SDS011;37064;59.346;18.058;2023-04-24T06:11:51;5.35;;;1.60;;
51036;SDS011;37064;59.346;18.058;2023-04-24T06:14:18;5.10;;;1.50;;
51036;SDS011;37064;59.346;18.058;2023-04-24T06:16:44;5.40;;;2.03;;
51036;SDS011;37064;59.346;18.058;2023-04-24T06:19:10;4.65;;;2.05;;
51036;SDS011;37064;59.346;18.058;2023-04-24T06:21:36;5.25;;;1.65;;
51036;SDS011;37064;59.346;18.058;2023-04-24T06:24:02;3.28;;;1.50;;
51036;SDS011;37064;59.346;18.058;2023-04-24T06:26:29;4.95;;;2.20;;
51036;SDS011;37064;59.346;18.058;2023-04-24T06:28:55;2.90;;;1.60;;
51036;SDS011;37064;59.346;18.058;2023-04-24T06:31:23;4.70;;;1.60;;
51036;SDS011;37064;59.346;18.058;2023-04-24T06:33:49;5.80;;;1.50;;
51036;SDS011;37064;59.346;18.058;2023-04-24T06:36:15;5.07;;;2.42;;
51036;SDS011;37064;59.346;18.058;2023-04-24T06:38:42;3.45;;;1.88;;
51036;SDS011;37064;59.346;18.058;2023-04-24T06:41:09;3.92;;;2.00;;
51036;SDS011;37064;59.346;18.058;2023-04-24T06:43:35;4.20;;;2.03;;
51036;SDS011;37064;59.346;18.058;2023-04-24T06:46:01;3.70;;;1.55;;
51036;SDS011;37064;59.346;18.058;2023-04-24T06:48:28;3.72;;;1.75;;
51036;SDS011;37064;59.346;18.058;2023-04-24T06:50:54;4.40;;;1.83;;
51036;SDS011;37064;59.346;18.058;2023-04-24T06:53:20;2.45;;;1.20;;
51036;SDS011;37064;59.346;18.058;2023-04-24T06:55:46;5.90;;;1.77;;
51036;SDS011;37064;59.346;18.058;2023-04-24T06:58:12;4.63;;;2.88;;
51036;SDS011;37064;59.346;18.058;2023-04-24T07:00:39;4.85;;;1.30;;
51036;SDS011;37064;59.346;18.058;2023-04-24T07:03:05;2.80;;;1.95;;
51036;SDS011;37064;59.346;18.058;2023-04-24T07:05:31;3.63;;;1.40;;
51036;SDS011;37064;59.346;18.058;2023-04-24T07:07:59;2.97;;;1.73;;
51036;SDS011;37064;59.346;18.058;2023-04-24T07:10:25;3.17;;;1.85;;
51036;SDS011;37064;59.346;18.058;2023-04-24T07:12:54;4.30;;;1.90;;
51036;SDS011;37064;59.346;18.058;2023-04-24T07:15:21;5.65;;;2.40;;
51036;SDS011;37064;59.346;18.058;2023-04-24T07:17:47;4.50;;;1.88;;
51036;SDS011;37064;59.346;18.058;2023-04-24T07:20:13;2.20;;;1.30;;
51036;SDS011;37064;59.346;18.058;2023-04-24T07:22:39;4.13;;;1.27;;
51036;SDS011;37064;59.346;18.058;2023-04-24T07:25:06;5.18;;;1.63;;
51036;SDS011;37064;59.346;18.058;2023-04-24T07:27:33;3.22;;;1.65;;
51036;SDS011;37064;59.346;18.058;2023-04-24T07:29:59;4.40;;;1.85;;
51036;SDS011;37064;59.346;18.058;2023-04-24T07:32:25;5.22;;;3.05;;
51036;SDS011;37064;59.346;18.058;2023-04-24T07:34:51;3.45;;;1.75;;
51036;SDS011;37064;59.346;18.058;2023-04-24T07:37:17;4.00;;;2.05;;
51036;SDS011;37064;59.346;18.058;2023-04-24T07:39:43;3.53;;;1.88;;
51036;SDS011;37064;59.346;18.058;2023-04-24T07:42:09;2.58;;;1.52;;
51036;SDS011;37064;59.346;18.058;2023-04-24T07:44:35;6.60;;;3.28;;
51036;SDS011;37064;59.346;18.058;2023-04-24T07:47:01;9.45;;;4.03;;
51036;SDS011;37064;59.346;18.058;2023-04-24T07:49:27;5.60;;;3.40;;
51036;SDS011;37064;59.346;18.058;2023-04-24T07:51:53;4.38;;;2.72;;
51036;SDS011;37064;59.346;18.058;2023-04-24T07:54:19;3.38;;;2.10;;
51036;SDS011;37064;59.346;18.058;2023-04-24T07:56:45;6.55;;;2.53;;
51036;SDS011;37064;59.346;18.058;2023-04-24T07:59:11;2.70;;;1.58;;
51036;SDS011;37064;59.346;18.058;2023-04-24T08:01:37;3.88;;;1.75;;
51036;SDS011;37064;59.346;18.058;2023-04-24T08:04:03;2.70;;;1.70;;
51036;SDS011;37064;59.346;18.058;2023-04-24T08:06:29;4.90;;;1.70;;
51036;SDS011;37064;59.346;18.058;2023-04-24T08:08:57;3.13;;;1.83;;
51036;SDS011;37064;59.346;18.058;2023-04-24T08:11:23;1.92;;;1.20;;
51036;SDS011;37064;59.346;18.058;2023-04-24T08:13:49;3.05;;;1.13;;
51036;SDS011;37064;59.346;18.058;2023-04-24T08:16:15;3.55;;;1.20;;
51036;SDS011;37064;59.346;18.058;2023-04-24T08:18:41;2.60;;;1.30;;
51036;SDS011;37064;59.346;18.058;2023-04-24T08:21:07;3.20;;;1.85;;
51036;SDS011;37064;59.346;18.058;2023-04-24T08:23:33;2.10;;;1.17;;
51036;SDS011;37064;59.346;18.058;2023-04-24T08:25:59;1.98;;;1.52;;
51036;SDS011;37064;59.346;18.058;2023-04-24T08:28:26;3.13;;;1.63;;
51036;SDS011;37064;59.346;18.058;2023-04-24T08:30:52;2.00;;;0.93;;
51036;SDS011;37064;59.346;18.058;2023-04-24T08:33:20;1.55;;;1.02;;
51036;SDS011;37064;59.346;18.058;2023-04-24T08:35:46;1.38;;;0.80;;
51036;SDS011;37064;59.346;18.058;2023-04-24T08:38:12;2.40;;;1.33;;
51036;SDS011;37064;59.346;18.058;2023-04-24T08:40:38;1.70;;;1.23;;
51036;SDS011;37064;59.346;18.058;2023-04-24T08:43:04;1.90;;;1.25;;
51036;SDS011;37064;59.346;18.058;2023-04-24T08:45:31;2.15;;;1.23;;
51036;SDS011;37064;59.346;18.058;2023-04-24T08:47:58;1.10;;;0.90;;
51036;SDS011;37064;59.346;18.058;2023-04-24T08:50:24;1.85;;;1.20;;
51036;SDS011;37064;59.346;18.058;2023-04-24T08:52:51;4.60;;;1.38;;
51036;SDS011;37064;59.346;18.058;2023-04-24T08:55:21;1.77;;;1.33;;
51036;SDS011;37064;59.346;18.058;2023-04-24T08:57:49;1.75;;;1.20;;
51036;SDS011;37064;59.346;18.058;2023-04-24T09:00:16;4.22;;;2.25;;
51036;SDS011;37064;59.346;18.058;2023-04-24T09:02:42;2.45;;;1.58;;
51036;SDS011;37064;59.346;18.058;2023-04-24T09:05:09;1.20;;;0.82;;
51036;SDS011;37064;59.346;18.058;2023-04-24T09:07:35;1.40;;;1.13;;
51036;SDS011;37064;59.346;18.058;2023-04-24T09:10:03;2.35;;;1.00;;
51036;SDS011;37064;59.346;18.058;2023-04-24T09:12:30;1.67;;;1.40;;
51036;SDS011;37064;59.346;18.058;2023-04-24T09:14:56;3.08;;;1.40;;
51036;SDS011;37064;59.346;18.058;2023-04-24T09:17:22;3.15;;;1.77;;
51036;SDS011;37064;59.346;18.058;2023-04-24T09:19:51;1.55;;;1.10;;
51036;SDS011;37064;59.346;18.058;2023-04-24T09:22:18;2.83;;;1.30;;
51036;SDS011;37064;59.346;18.058;2023-04-24T09:24:44;1.52;;;0.90;;
51036;SDS011;37064;59.346;18.058;2023-04-24T09:27:11;1.90;;;1.10;;
51036;SDS011;37064;59.346;18.058;2023-04-24T09:29:37;1.88;;;1.02;;
51036;SDS011;37064;59.346;18.058;2023-04-24T09:32:19;2.10;;;0.95;;
51036;SDS011;37064;59.346;18.058;2023-04-24T09:35:04;3.22;;;1.23;;
51036;SDS011;37064;59.346;18.058;2023-04-24T09:37:34;2.95;;;1.15;;
51036;SDS011;37064;59.346;18.058;2023-04-24T09:40:15;2.80;;;1.15;;
51036;SDS011;37064;59.346;18.058;2023-04-24T09:42:43;2.60;;;1.05;;
51036;SDS011;37064;59.346;18.058;2023-04-24T09:45:10;2.42;;;2.03;;
51036;SDS011;37064;59.346;18.058;2023-04-24T09:47:40;2.55;;;1.45;;
51036;SDS011;37064;59.346;18.058;2023-04-24T09:50:09;3.83;;;1.70;;
51036;SDS011;37064;59.346;18.058;2023-04-24T09:52:36;4.70;;;2.75;;
51036;SDS011;37064;59.346;18.058;2023-04-24T09:55:10;2.63;;;1.65;;
51036;SDS011;37064;59.346;18.058;2023-04-24T09:57:40;2.67;;;1.42;;
51036;SDS011;37064;59.346;18.058;2023-04-24T10:00:12;4.03;;;1.33;;
51036;SDS011;37064;59.346;18.058;2023-04-24T10:02:38;1.92;;;1.10;;
51036;SDS011;37064;59.346;18.058;2023-04-24T10:05:04;4.15;;;1.55;;
51036;SDS011;37064;59.346;18.058;2023-04-24T10:07:32;2.25;;;0.98;;
51036;SDS011;37064;59.346;18.058;2023-04-24T10:09:58;2.78;;;1.60;;
51036;SDS011;37064;59.346;18.058;2023-04-24T10:12:25;2.47;;;0.95;;
51036;SDS011;37064;59.346;18.058;2023-04-24T10:14:52;6.65;;;1.65;;
51036;SDS011;37064;59.346;18.058;2023-04-24T10:17:18;3.72;;;1.40;;
51036;SDS011;37064;59.346;18.058;2023-04-24T10:19:46;5.18;;;2.45;;
51036;SDS011;37064;59.346;18.058;2023-04-24T10:22:12;5.35;;;2.10;;
51036;SDS011;37064;59.346;18.058;2023-04-24T10:24:40;2.05;;;1.35;;
51036;SDS011;37064;59.346;18.058;2023-04-24T10:27:07;4.25;;;2.15;;
51036;SDS011;37064;59.346;18.058;2023-04-24T10:29:33;9.73;;;1.92;;
51036;SDS011;37064;59.346;18.058;2023-04-24T10:32:01;5.50;;;2.05;;
51036;SDS011;37064;59.346;18.058;2023-04-24T10:34:27;2.50;;;1.60;;
51036;SDS011;37064;59.346;18.058;2023-04-24T10:36:53;4.90;;;1.83;;
51036;SDS011;37064;59.346;18.058;2023-04-24T10:39:20;3.92;;;1.80;;
51036;SDS011;37064;59.346;18.058;2023-04-24T10:41:48;6.53;;;1.98;;
51036;SDS011;37064;59.346;18.058;2023-04-24T10:44:15;5.13;;;2.47;;
51036;SDS011;37064;59.346;18.058;2023-04-24T10:46:46;3.35;;;1.88;;
51036;SDS011;37064;59.346;18.058;2023-04-24T10:49:15;3.53;;;1.80;;
51036;SDS011;37064;59.346;18.058;2023-04-24T10:51:45;3.92;;;2.20;;
51036;SDS011;37064;59.346;18.058;2023-04-24T10:54:21;4.70;;;2.70;;
51036;SDS011;37064;59.346;18.058;2023-04-24T10:56:47;6.07;;;1.65;;
51036;SDS011;37064;59.346;18.058;2023-04-24T10:59:19;6.20;;;2.08;;
51036;SDS011;37064;59.346;18.058;2023-04-24T11:01:53;1.88;;;1.35;;
51036;SDS011;37064;59.346;18.058;2023-04-24T11:04:32;6.65;;;1.48;;
51036;SDS011;37064;59.346;18.058;2023-04-24T11:07:00;3.17;;;1.55;;
51036;SDS011;37064;59.346;18.058;2023-04-24T11:09:26;2.85;;;1.30;;
51036;SDS011;37064;59.346;18.058;2023-04-24T11:12:02;3.15;;;1.45;;
51036;SDS011;37064;59.346;18.058;2023-04-24T11:14:28;5.93;;;1.40;;
51036;SDS011;37064;59.346;18.058;2023-04-24T11:16:54;2.25;;;1.10;;
51036;SDS011;37064;59.346;18.058;2023-04-24T11:19:24;3.72;;;1.23;;
51036;SDS011;37064;59.346;18.058;2023-04-24T11:21:58;1.98;;;1.23;;
51036;SDS011;37064;59.346;18.058;2023-04-24T11:27:16;6.07;;;2.40;;
51036;SDS011;37064;59.346;18.058;2023-04-24T11:29:45;4.32;;;1.70;;
51036;SDS011;37064;59.346;18.058;2023-04-24T11:32:16;1.80;;;1.10;;
51036;SDS011;37064;59.346;18.058;2023-04-24T11:34:50;2.97;;;1.30;;
51036;SDS011;37064;59.346;18.058;2023-04-24T11:37:16;5.70;;;2.13;;
51036;SDS011;37064;59.346;18.058;2023-04-24T11:39:43;4.78;;;1.10;;
51036;SDS011;37064;59.346;18.058;2023-04-24T11:42:09;3.15;;;0.90;;
51036;SDS011;37064;59.346;18.058;2023-04-24T11:44:35;1.98;;;1.05;;
51036;SDS011;37064;59.346;18.058;2023-04-24T11:47:05;4.45;;;1.75;;
51036;SDS011;37064;59.346;18.058;2023-04-24T11:52:00;2.40;;;1.73;;
51036;SDS011;37064;59.346;18.058;2023-04-24T11:54:26;4.32;;;1.40;;
51036;SDS011;37064;59.346;18.058;2023-04-24T11:56:52;2.38;;;1.55;;
51036;SDS011;37064;59.346;18.058;2023-04-24T11:59:18;2.08;;;1.63;;
51036;SDS011;37064;59.346;18.058;2023-04-24T12:01:45;3.58;;;1.55;;
51036;SDS011;37064;59.346;18.058;2023-04-24T12:04:11;4.53;;;2.13;;
51036;SDS011;37064;59.346;18.058;2023-04-24T12:06:37;2.25;;;1.63;;
51036;SDS011;37064;59.346;18.058;2023-04-24T12:09:03;6.50;;;2.22;;
51036;SDS011;37064;59.346;18.058;2023-04-24T12:11:29;2.67;;;1.65;;
51036;SDS011;37064;59.346;18.058;2023-04-24T12:13:56;4.07;;;1.75;;
51036;SDS011;37064;59.346;18.058;2023-04-24T12:16:22;3.15;;;2.17;;
51036;SDS011;37064;59.346;18.058;2023-04-24T12:18:50;3.47;;;1.60;;
51036;SDS011;37064;59.346;18.058;2023-04-24T12:21:17;3.28;;;1.70;;
51036;SDS011;37064;59.346;18.058;2023-04-24T12:23:44;2.88;;;1.95;;
51036;SDS011;37064;59.346;18.058;2023-04-24T12:26:16;6.90;;;2.35;;
51036;SDS011;37064;59.346;18.058;2023-04-24T12:28:43;6.47;;;2.80;;
51036;SDS011;37064;59.346;18.058;2023-04-24T12:31:09;4.05;;;1.90;;
51036;SDS011;37064;59.346;18.058;2023-04-24T12:33:35;4.40;;;2.47;;
51036;SDS011;37064;59.346;18.058;2023-04-24T12:36:01;4.65;;;1.55;;
51036;SDS011;37064;59.346;18.058;2023-04-24T12:38:29;4.38;;;2.00;;
51036;SDS011;37064;59.346;18.058;2023-04-24T12:41:30;4.18;;;2.53;;
51036;SDS011;37064;59.346;18.058;2023-04-24T12:43:51;5.07;;;2.08;;
51036;SDS011;37064;59.346;18.058;2023-04-24T12:46:17;5.47;;;1.75;;
51036;SDS011;37064;59.346;18.058;2023-04-24T12:48:43;3.78;;;2.15;;
51036;SDS011;37064;59.346;18.058;2023-04-24T12:51:09;4.03;;;2.00;;
51036;SDS011;37064;59.346;18.058;2023-04-24T12:53:35;4.20;;;2.13;;
51036;SDS011;37064;59.346;18.058;2023-04-24T12:56:01;4.25;;;2.28;;
51036;SDS011;37064;59.346;18.058;2023-04-24T12:58:27;4.63;;;3.05;;
51036;SDS011;37064;59.346;18.058;2023-04-24T13:00:53;5.10;;;2.28;;
51036;SDS011;37064;59.346;18.058;2023-04-24T13:03:19;8.10;;;2.25;;
51036;SDS011;37064;59.346;18.058;2023-04-24T13:05:47;5.75;;;2.67;;
51036;SDS011;37064;59.346;18.058;2023-04-24T13:08:13;8.38;;;2.35;;
51036;SDS011;37064;59.346;18.058;2023-04-24T13:10:39;3.42;;;2.28;;
51036;SDS011;37064;59.346;18.058;2023-04-24T13:13:06;8.98;;;3.10;;
51036;SDS011;37064;59.346;18.058;2023-04-24T13:15:32;7.53;;;3.67;;
51036;SDS011;37064;59.346;18.058;2023-04-24T13:17:58;6.80;;;2.83;;
51036;SDS011;37064;59.346;18.058;2023-04-24T13:20:24;3.88;;;2.58;;
51036;SDS011;37064;59.346;18.058;2023-04-24T13:22:51;4.43;;;2.08;;
51036;SDS011;37064;59.346;18.058;2023-04-24T13:25:17;6.45;;;2.50;;
51036;SDS011;37064;59.346;18.058;2023-04-24T13:27:43;4.10;;;1.90;;
51036;SDS011;37064;59.346;18.058;2023-04-24T13:30:09;4.90;;;2.63;;
51036;SDS011;37064;59.346;18.058;2023-04-24T13:32:35;6.13;;;2.25;;
51036;SDS011;37064;59.346;18.058;2023-04-24T13:35:01;3.97;;;2.10;;
51036;SDS011;37064;59.346;18.058;2023-04-24T13:37:27;4.45;;;2.20;;
51036;SDS011;37064;59.346;18.058;2023-04-24T13:39:53;6.28;;;2.28;;
51036;SDS011;37064;59.346;18.058;2023-04-24T13:42:19;5.97;;;2.20;;
51036;SDS011;37064;59.346;18.058;2023-04-24T13:44:45;6.88;;;3.88;;
51036;SDS011;37064;59.346;18.058;2023-04-24T13:47:11;5.63;;;2.90;;
51036;SDS011;37064;59.346;18.058;2023-04-24T13:49:37;3.70;;;2.00;;
51036;SDS011;37064;59.346;18.058;2023-04-24T13:52:03;3.95;;;1.92;;
51036;SDS011;37064;59.346;18.058;2023-04-24T13:54:29;8.43;;;2.13;;
51036;SDS011;37064;59.346;18.058;2023-04-24T13:56:57;5.53;;;2.35;;
51036;SDS011;37064;59.346;18.058;2023-04-24T13:59:23;10.00;;;2.40;;
51036;SDS011;37064;59.346;18.058;2023-04-24T14:01:50;8.07;;;2.67;;
51036;SDS011;37064;59.346;18.058;2023-04-24T14:04:16;5.63;;;2.50;;
51036;SDS011;37064;59.346;18.058;2023-04-24T14:06:42;7.95;;;2.97;;
51036;SDS011;37064;59.346;18.058;2023-04-24T14:09:09;4.53;;;2.15;;
51036;SDS011;37064;59.346;18.058;2023-04-24T14:11:35;5.15;;;2.20;;
51036;SDS011;37064;59.346;18.058;2023-04-24T14:14:01;6.20;;;2.42;;
51036;SDS011;37064;59.346;18.058;2023-04-24T14:16:28;7.25;;;2.97;;
51036;SDS011;37064;59.346;18.058;2023-04-24T14:18:53;4.35;;;2.60;;
51036;SDS011;37064;59.346;18.058;2023-04-24T14:21:20;10.02;;;4.45;;
51036;SDS011;37064;59.346;18.058;2023-04-24T14:23:46;4.45;;;2.42;;
51036;SDS011;37064;59.346;18.058;2023-04-24T14:26:12;4.75;;;2.65;;
51036;SDS011;37064;59.346;18.058;2023-04-24T14:28:38;3.80;;;2.55;;
51036;SDS011;37064;59.346;18.058;2023-04-24T14:31:04;6.82;;;2.15;;
51036;SDS011;37064;59.346;18.058;2023-04-24T14:33:30;7.75;;;3.35;;
51036;SDS011;37064;59.346;18.058;2023-04-24T14:35:56;4.93;;;2.08;;